Time;durP1;ratioP1;P1;durP2;ratioP2;P2;SDS_P1;SDS_P2;PMS_P1;PMS_P2;Temp;Humidity;BMP_temperature;BMP_pressure;BME280_temperature;BME280_humidity;BME280_pressure;Samples;Min_cycle;Max_cycle;Signal;HPM_P1;HPM_P2
2022/07/13 00:02:05;;;;;;;;;;;;;;;21.70;100.00;102080.59;5055236;28;20447;-58
2022/07/13 00:04:30;;;;;;;;;;;;;;;21.74;100.00;102074.00;5070691;28;20426;-58
2022/07/13 00:06:55;;;;;;;;;;;;;;;21.78;100.00;102066.56;5057313;28;19986;-58
2022/07/13 00:09:20;;;;;;;;;;;;;;;21.82;100.00;102065.34;5075064;28;20338;-58
2022/07/13 00:11:46;;;;;;;;;;;;;;;21.85;99.15;102053.50;5075056;28;20437;-58
2022/07/13 00:14:11;;;;;;;;;;;;;;;21.86;98.22;102060.59;5074274;28;20342;-58
2022/07/13 00:16:36;;;;;;;;;;;;;;;21.89;100.00;102057.66;5074788;28;19916;-57
2022/07/13 00:19:01;;;;;;;;;;;;;;;21.84;100.00;102054.44;5074947;28;20011;-58
2022/07/13 00:21:27;;;;;;;;;;;;;;;21.76;100.00;102044.22;5075109;28;19977;-58
2022/07/13 00:23:52;;;;;;;;;;;;;;;21.67;100.00;102058.41;5074540;28;19935;-58
2022/07/13 00:26:17;;;;;;;;;;;;;;;21.53;100.00;102052.13;5056700;28;19924;-58
2022/07/13 00:28:42;;;;;;;;;;;;;;;21.41;100.00;102056.56;5056901;28;20413;-57
2022/07/13 00:31:08;;;;;;;;;;;;;;;21.32;100.00;102050.97;5056809;28;19955;-57
2022/07/13 00:33:33;;;;;;;;;;;;;;;21.25;100.00;102050.56;5074115;28;20410;-57
2022/07/13 00:35:58;;;;;;;;;;;;;;;21.21;100.00;102052.59;5056229;28;19925;-58
2022/07/13 00:38:24;;;;;;;;;;;;;;;21.18;100.00;102044.75;5074918;28;19928;-58
2022/07/13 00:40:49;;;;;;;;;;;;;;;21.16;100.00;102035.91;5074741;28;19966;-58
2022/07/13 00:43:14;;;;;;;;;;;;;;;21.15;100.00;102039.59;5074679;28;20348;-57
2022/07/13 00:45:39;;;;;;;;;;;;;;;21.13;100.00;102041.50;5061099;28;20337;-58
2022/07/13 00:48:05;;;;;;;;;;;;;;;21.08;100.00;102044.53;5073543;28;20326;-59
2022/07/13 00:50:30;;;;;;;;;;;;;;;21.04;100.00;102037.63;5074572;28;19917;-59
2022/07/13 00:52:56;;;;;;;;;;;;;;;21.02;100.00;102026.09;5074776;28;19917;-59
2022/07/13 00:55:21;;;;;;;;;;;;;;;21.03;100.00;102033.22;5072593;28;20346;-59
2022/07/13 00:57:46;;;;;;;;;;;;;;;21.13;100.00;102029.91;5074272;28;19913;-59
2022/07/13 01:00:13;;;;;;;;;;;;;;;21.26;100.00;102017.25;5074023;28;19916;-57
2022/07/13 01:02:39;;;;;;;;;;;;;;;21.33;100.00;102026.63;5074201;28;19919;-58
2022/07/13 01:05:05;;;;;;;;;;;;;;;21.42;100.00;102019.69;5074014;28;19924;-57
2022/07/13 01:07:30;;;;;;;;;;;;;;;21.49;100.00;102014.75;5073623;28;20292;-58
2022/07/13 01:09:56;;;;;;;;;;;;;;;21.55;100.00;102006.25;5074287;28;19916;-58
2022/07/13 01:12:21;;;;;;;;;;;;;;;21.55;100.00;102007.09;5074101;28;20360;-58
2022/07/13 01:14:47;;;;;;;;;;;;;;;21.62;100.00;102009.34;5073858;28;20230;-58
2022/07/13 01:17:12;;;;;;;;;;;;;;;21.63;100.00;102008.38;5073585;28;19920;-58
2022/07/13 01:19:37;;;;;;;;;;;;;;;21.66;99.75;102005.44;5073894;28;20403;-59
2022/07/13 01:22:03;;;;;;;;;;;;;;;21.67;100.00;102009.88;5072565;28;19913;-59
2022/07/13 01:24:29;;;;;;;;;;;;;;;21.66;100.00;102009.00;5073495;28;19920;-60
2022/07/13 01:26:54;;;;;;;;;;;;;;;21.67;99.95;102008.03;5073303;28;19944;-59
2022/07/13 01:29:20;;;;;;;;;;;;;;;21.69;100.00;102006.09;5073748;28;20375;-59
2022/07/13 01:31:45;;;;;;;;;;;;;;;21.71;99.75;102006.81;5073713;28;19916;-59
2022/07/13 01:34:10;;;;;;;;;;;;;;;21.71;99.49;102008.66;5073693;28;19959;-58
2022/07/13 01:36:36;;;;;;;;;;;;;;;21.70;99.76;102013.22;5072387;28;19917;-57
2022/07/13 01:39:02;;;;;;;;;;;;;;;21.71;99.82;102008.66;5073198;28;19921;-58
2022/07/13 01:41:31;;;;;;;;;;;;;;;21.73;99.77;102009.44;5072473;28;19924;-58
2022/07/13 01:43:57;;;;;;;;;;;;;;;21.71;98.92;102004.13;5073662;28;19920;-57
2022/07/13 01:46:23;;;;;;;;;;;;;;;21.70;99.07;102007.81;5071916;28;19920;-58
2022/07/13 01:48:48;;;;;;;;;;;;;;;21.72;98.04;101994.22;5073014;28;19924;-58
2022/07/13 01:51:14;;;;;;;;;;;;;;;21.74;96.32;101990.44;5073359;28;20291;-58
2022/07/13 01:53:39;;;;;;;;;;;;;;;21.77;95.70;101994.75;5072020;28;20368;-57
2022/07/13 01:56:04;;;;;;;;;;;;;;;21.81;95.96;102001.63;5072200;28;20014;-58
2022/07/13 01:58:30;;;;;;;;;;;;;;;21.86;94.63;101999.44;5072191;28;19921;-58
2022/07/13 02:00:55;;;;;;;;;;;;;;;21.88;94.44;101986.72;5073151;28;19969;-59
2022/07/13 02:03:21;;;;;;;;;;;;;;;21.92;94.91;101992.75;5073015;28;19912;-59
2022/07/13 02:05:46;;;;;;;;;;;;;;;21.93;94.86;101978.25;5071627;28;19917;-58
2022/07/13 02:08:11;;;;;;;;;;;;;;;21.92;95.08;101965.78;5072816;28;19920;-59
2022/07/13 02:10:37;;;;;;;;;;;;;;;21.90;95.37;101982.03;5072322;28;20028;-58
2022/07/13 02:13:06;;;;;;;;;;;;;;;21.89;96.03;101966.88;5072553;28;19916;-58
2022/07/13 02:15:32;;;;;;;;;;;;;;;21.89;96.41;101974.06;5071353;28;19912;-59
2022/07/13 02:18:00;;;;;;;;;;;;;;;21.84;96.93;101973.56;5072752;28;19920;-59
2022/07/13 02:20:25;;;;;;;;;;;;;;;21.80;98.71;101980.16;5068982;28;19916;-59
2022/07/13 02:22:50;;;;;;;;;;;;;;;21.76;98.91;101968.75;5052687;28;19924;-58
2022/07/13 02:25:16;;;;;;;;;;;;;;;21.76;96.75;101980.41;5051246;28;19924;-58
2022/07/13 02:27:42;;;;;;;;;;;;;;;21.75;96.87;101964.31;5053770;28;19923;-59
2022/07/13 02:30:07;;;;;;;;;;;;;;;21.74;97.02;101968.00;5072132;28;19931;-59
2022/07/13 02:32:33;;;;;;;;;;;;;;;21.75;96.50;101964.31;5054521;28;19921;-58
2022/07/13 02:34:58;;;;;;;;;;;;;;;21.73;95.45;101959.06;5072381;28;19963;-59
2022/07/13 02:37:23;;;;;;;;;;;;;;;21.72;95.42;101964.56;5072218;28;19919;-58
2022/07/13 02:39:51;;;;;;;;;;;;;;;21.74;95.69;101965.28;5072509;28;19920;-58
2022/07/13 02:42:16;;;;;;;;;;;;;;;21.76;95.31;101966.06;5055953;28;19986;-58
2022/07/13 02:44:41;;;;;;;;;;;;;;;21.76;94.84;101963.34;5072518;28;20388;-57
2022/07/13 02:47:07;;;;;;;;;;;;;;;21.76;95.45;101963.34;5071937;28;19924;-57
2022/07/13 02:49:32;;;;;;;;;;;;;;;21.76;95.74;101957.97;5054357;28;20287;-58
2022/07/13 02:51:57;;;;;;;;;;;;;;;21.76;95.10;101960.66;5072066;28;19924;-57
2022/07/13 02:54:22;;;;;;;;;;;;;;;21.77;95.76;101959.69;5072459;28;19919;-58
2022/07/13 02:56:48;;;;;;;;;;;;;;;21.72;96.87;101948.38;5054033;28;19920;-58
2022/07/13 02:59:13;;;;;;;;;;;;;;;21.71;96.31;101965.53;5072143;28;19916;-58
2022/07/13 03:01:38;;;;;;;;;;;;;;;21.70;95.88;101955.72;5071857;28;20245;-58
2022/07/13 03:04:03;;;;;;;;;;;;;;;21.69;95.53;101945.91;5072222;28;19951;-58
2022/07/13 03:06:29;;;;;;;;;;;;;;;21.68;95.35;101953.16;5071800;28;19963;-58
2022/07/13 03:08:54;;;;;;;;;;;;;;;21.69;95.78;101938.69;5072228;28;19920;-59
2022/07/13 03:11:19;;;;;;;;;;;;;;;21.67;96.02;101946.03;5071562;28;20288;-58
2022/07/13 03:13:44;;;;;;;;;;;;;;;21.66;96.25;101932.66;5071687;28;19924;-58
2022/07/13 03:16:10;;;;;;;;;;;;;;;21.63;96.25;101930.22;5071828;28;19935;-58
2022/07/13 03:18:35;;;;;;;;;;;;;;;21.61;96.09;101927.63;5054074;28;20011;-58
2022/07/13 03:21:00;;;;;;;;;;;;;;;21.60;96.23;101926.75;5071982;28;20387;-54
2022/07/13 03:23:25;;;;;;;;;;;;;;;21.59;95.60;101925.03;5057262;28;19943;-57
2022/07/13 03:25:51;;;;;;;;;;;;;;;21.56;96.54;101935.19;5070449;28;20364;-57
2022/07/13 03:28:16;;;;;;;;;;;;;;;21.55;96.48;101936.19;5070353;28;20299;-58
2022/07/13 03:30:41;;;;;;;;;;;;;;;21.54;96.66;101945.19;5071680;28;20287;-58
2022/07/13 03:33:06;;;;;;;;;;;;;;;21.54;97.01;101923.63;5071306;28;20334;-59
2022/07/13 03:35:31;;;;;;;;;;;;;;;21.51;97.40;101932.81;5053874;28;20291;-59
2022/07/13 03:37:57;;;;;;;;;;;;;;;21.50;97.53;101935.63;5052997;28;19960;-57
2022/07/13 03:40:22;;;;;;;;;;;;;;;21.51;97.16;101932.81;5071511;28;19920;-57
2022/07/13 03:42:47;;;;;;;;;;;;;;;21.51;97.25;101926.53;5066974;28;19924;-58
2022/07/13 03:45:13;;;;;;;;;;;;;;;21.51;97.52;101924.72;5070892;28;19927;-58
2022/07/13 03:47:38;;;;;;;;;;;;;;;21.51;98.04;101937.31;5051512;28;19927;-58
2022/07/13 03:50:03;;;;;;;;;;;;;;;21.53;97.54;101933.53;5061621;28;19921;-58
2022/07/13 03:52:29;;;;;;;;;;;;;;;21.52;97.11;101942.63;5052388;28;20277;-59
2022/07/13 03:54:54;;;;;;;;;;;;;;;21.56;97.01;101938.75;5045692;28;19960;-59
2022/07/13 03:57:19;;;;;;;;;;;;;;;21.59;96.69;101933.13;5033396;28;19952;-58
2022/07/13 03:59:44;;;;;;;;;;;;;;;21.60;97.10;101924.06;5051405;28;19940;-57
2022/07/13 04:02:10;;;;;;;;;;;;;;;21.60;97.54;101917.84;5033643;28;19939;-58
2022/07/13 04:04:35;;;;;;;;;;;;;;;21.60;96.81;101918.69;5060994;28;20268;-58
2022/07/13 04:07:00;;;;;;;;;;;;;;;21.63;97.03;101931.06;5071328;28;19920;-59
2022/07/13 04:09:25;;;;;;;;;;;;;;;21.65;96.82;101933.63;5053683;28;20272;-58
2022/07/13 04:11:51;;;;;;;;;;;;;;;21.65;97.03;101928.25;5053268;28;19924;-59
2022/07/13 04:14:16;;;;;;;;;;;;;;;21.66;97.02;101929.97;5071180;28;20308;-58
2022/07/13 04:16:41;;;;;;;;;;;;;;;21.67;96.84;101932.53;5071236;28;20295;-59
2022/07/13 04:19:06;;;;;;;;;;;;;;;21.69;96.32;101933.31;5071177;28;19916;-59
2022/07/13 04:21:31;;;;;;;;;;;;;;;21.73;95.79;101931.25;5071474;28;19924;-59
2022/07/13 04:23:57;;;;;;;;;;;;;;;21.74;95.01;101927.53;5075164;28;19917;-58
2022/07/13 04:26:22;;;;;;;;;;;;;;;21.78;95.12;101923.66;5057817;28;20368;-58
2022/07/13 04:28:47;;;;;;;;;;;;;;;21.79;94.13;101927.22;5074637;28;19916;-58
2022/07/13 04:31:13;;;;;;;;;;;;;;;21.82;94.03;101922.47;5074843;28;19916;-58
2022/07/13 04:33:38;;;;;;;;;;;;;;;21.86;94.55;101923.09;5056676;28;19916;-57
2022/07/13 04:36:05;;;;;;;;;;;;;;;21.89;94.05;101920.16;5074328;28;19921;-58
2022/07/13 04:38:31;;;;;;;;;;;;;;;21.92;94.13;101923.47;5074348;28;19912;-59
2022/07/13 04:40:56;;;;;;;;;;;;;;;21.91;94.34;101921.75;5074665;28;19916;-58
2022/07/13 04:43:21;;;;;;;;;;;;;;;21.92;93.90;101925.31;5073957;28;19919;-58
2022/07/13 04:45:47;;;;;;;;;;;;;;;21.88;93.96;101921.13;5055868;28;19955;-58
2022/07/13 04:48:12;;;;;;;;;;;;;;;21.90;93.38;101919.19;5073491;28;20458;-58
2022/07/13 04:50:37;;;;;;;;;;;;;;;21.89;92.79;101925.53;5072416;28;19994;-58
2022/07/13 04:53:02;;;;;;;;;;;;;;;21.88;92.85;101921.13;5037901;28;19970;-58
2022/07/13 04:55:28;;;;;;;;;;;;;;;21.88;91.77;101922.00;5074055;28;19921;-58
2022/07/13 04:57:55;;;;;;;;;;;;;;;21.90;90.96;101925.41;5050986;28;19917;-57
2022/07/13 05:00:21;;;;;;;;;;;;;;;21.95;90.07;101933.16;5055060;28;20299;-58
2022/07/13 05:02:47;;;;;;;;;;;;;;;21.93;90.03;101929.72;5073732;28;19912;-58
2022/07/13 05:05:12;;;;;;;;;;;;;;;21.96;90.32;101934.91;5074193;28;19966;-58
2022/07/13 05:07:37;;;;;;;;;;;;;;;21.99;89.95;101929.25;5073805;28;19917;-58
2022/07/13 05:10:03;;;;;;;;;;;;;;;22.00;89.82;101924.75;5073671;28;19916;-59
2022/07/13 05:12:28;;;;;;;;;;;;;;;22.04;89.43;101918.13;5055928;28;19967;-59
2022/07/13 05:14:53;;;;;;;;;;;;;;;22.02;90.38;101929.03;5056107;28;19958;-60
2022/07/13 05:17:18;;;;;;;;;;;;;;;22.00;90.43;101922.88;5072930;28;19920;-60
2022/07/13 05:19:44;;;;;;;;;;;;;;;21.99;90.80;101931.94;5073391;28;20023;-57
2022/07/13 05:22:09;;;;;;;;;;;;;;;22.06;90.65;101927.81;5073674;28;20380;-58
2022/07/13 05:24:34;;;;;;;;;;;;;;;22.13;90.70;101927.34;5073118;28;19996;-57
2022/07/13 05:27:00;;;;;;;;;;;;;;;22.21;90.96;101915.00;5073385;28;19971;-58
2022/07/13 05:29:25;;;;;;;;;;;;;;;22.23;91.59;101929.22;5073265;28;19963;-59
2022/07/13 05:31:50;;;;;;;;;;;;;;;22.24;90.64;101928.22;5073357;28;19928;-58
2022/07/13 05:34:15;;;;;;;;;;;;;;;22.23;91.99;101931.06;5064146;28;19920;-59
2022/07/13 05:36:41;;;;;;;;;;;;;;;22.23;91.68;101931.06;5064471;28;19923;-57
2022/07/13 05:39:06;;;;;;;;;;;;;;;22.22;92.81;101934.72;5072641;28;19942;-58
2022/07/13 05:41:32;;;;;;;;;;;;;;;22.25;93.36;101935.34;5059841;28;19924;-59
2022/07/13 05:43:59;;;;;;;;;;;;;;;22.19;94.21;101941.22;5072665;28;20440;-59
2022/07/13 05:46:25;;;;;;;;;;;;;;;22.18;94.86;101931.41;5072790;28;20011;-59
2022/07/13 05:48:50;;;;;;;;;;;;;;;22.21;94.84;101944.69;5072942;28;20019;-57
2022/07/13 05:51:15;;;;;;;;;;;;;;;22.26;94.69;101947.00;5073066;28;19923;-59
2022/07/13 05:53:40;;;;;;;;;;;;;;;22.32;94.96;101945.69;5072856;28;20015;-57
2022/07/13 05:56:06;;;;;;;;;;;;;;;22.40;94.59;101951.34;5055257;28;20026;-57
2022/07/13 05:58:32;;;;;;;;;;;;;;;22.38;94.95;101961.44;5072521;28;19920;-58
2022/07/13 06:00:57;;;;;;;;;;;;;;;22.48;95.19;101961.56;5072255;28;20371;-58
2022/07/13 06:03:23;;;;;;;;;;;;;;;22.55;94.74;101960.13;5056467;28;19921;-58
2022/07/13 06:05:48;;;;;;;;;;;;;;;22.61;94.23;101953.34;5055020;28;20335;-58
2022/07/13 06:08:13;;;;;;;;;;;;;;;22.61;95.00;101948.84;5071411;28;19920;-59
2022/07/13 06:10:38;;;;;;;;;;;;;;;22.64;94.81;101955.84;5068770;28;19925;-59
2022/07/13 06:13:04;;;;;;;;;;;;;;;22.67;94.54;101952.88;5050683;28;20294;-57
2022/07/13 06:15:29;;;;;;;;;;;;;;;22.72;94.32;101942.56;5069238;28;19923;-58
2022/07/13 06:17:54;;;;;;;;;;;;;;;22.83;93.44;101947.13;5053066;28;19975;-58
2022/07/13 06:20:19;;;;;;;;;;;;;;;23.03;92.43;101954.50;5048239;28;19928;-58
2022/07/13 06:23:09;;;;;;;;;;;;;;;23.07;91.86;101955.13;5068802;28;19924;-58
2022/07/13 06:25:30;;;;;;;;;;;;;;;23.33;90.83;101958.44;5067366;28;19928;-59
2022/07/13 06:27:55;;;;;;;;;;;;;;;23.46;90.26;101949.31;5054006;28;20022;-59
2022/07/13 06:30:20;;;;;;;;;;;;;;;23.46;88.41;101962.84;5054945;28;20402;-58
2022/07/13 06:32:45;;;;;;;;;;;;;;;23.50;89.71;101956.19;5074930;28;19974;-59
2022/07/13 06:35:11;;;;;;;;;;;;;;;23.68;88.26;101961.91;5055157;28;19927;-59
2022/07/13 06:37:36;;;;;;;;;;;;;;;23.81;88.18;101956.34;5062377;28;19923;-59
2022/07/13 06:40:01;;;;;;;;;;;;;;;23.98;86.67;101952.25;5071807;28;19947;-59
2022/07/13 06:42:26;;;;;;;;;;;;;;;23.95;85.66;101952.50;5055961;28;19913;-56
2022/07/13 06:44:52;;;;;;;;;;;;;;;23.92;86.04;101952.78;5054041;28;20325;-57
2022/07/13 06:47:17;;;;;;;;;;;;;;;24.13;84.74;101956.38;5039001;28;20315;-58
2022/07/13 06:49:42;;;;;;;;;;;;;;;24.32;84.38;101949.34;5066829;28;20007;-59
2022/07/13 06:52:07;;;;;;;;;;;;;;;24.41;82.89;101953.97;5044129;28;19927;-58
2022/07/13 06:54:32;;;;;;;;;;;;;;;24.48;81.64;101959.75;5064234;28;19924;-58
2022/07/13 06:56:58;;;;;;;;;;;;;;;24.39;81.00;101955.97;5053188;28;19921;-57
2022/07/13 06:59:23;;;;;;;;;;;;;;;24.32;82.70;101961.06;5029114;28;19921;-58
2022/07/13 07:01:49;;;;;;;;;;;;;;;24.39;81.91;101947.84;5065570;28;20620;-58
2022/07/13 07:04:15;;;;;;;;;;;;;;;24.38;82.25;101949.69;5061001;28;20003;-54
2022/07/13 07:06:40;;;;;;;;;;;;;;;24.38;82.25;101963.22;5057131;28;20397;-59
2022/07/13 07:09:05;;;;;;;;;;;;;;;24.30;82.19;101965.75;5050901;28;19921;-55
2022/07/13 07:11:30;;;;;;;;;;;;;;;24.17;82.50;101967.75;5045806;28;19929;-56
2022/07/13 07:13:56;;;;;;;;;;;;;;;24.09;83.73;101967.56;5033613;28;20269;-58
2022/07/13 07:16:21;;;;;;;;;;;;;;;24.08;82.63;101968.56;5064590;28;19999;-58
2022/07/13 07:18:46;;;;;;;;;;;;;;;23.85;81.44;101963.19;5057405;28;20327;-58
2022/07/13 07:21:11;;;;;;;;;;;;;;;23.65;83.68;101967.59;5055514;28;19920;-58
2022/07/13 07:23:36;;;;;;;;;;;;;;;23.72;83.43;101963.38;5056674;28;20257;-58
2022/07/13 07:26:02;;;;;;;;;;;;;;;23.94;81.39;101962.47;5062208;28;20288;-58
2022/07/13 07:28:27;;;;;;;;;;;;;;;23.97;83.64;101962.22;5064438;28;19925;-58
2022/07/13 07:30:53;;;;;;;;;;;;;;;24.21;81.90;101963.84;5050135;28;20284;-59
2022/07/13 07:33:18;;;;;;;;;;;;;;;24.63;79.84;101958.41;5069267;28;19920;-59
2022/07/13 07:35:43;;;;;;;;;;;;;;;25.19;77.29;101953.53;5042384;28;19949;-59
2022/07/13 07:38:08;;;;;;;;;;;;;;;25.42;75.14;101950.63;5050868;28;19970;-59
2022/07/13 07:40:33;;;;;;;;;;;;;;;25.58;73.49;101952.81;5047548;28;20253;-58
2022/07/13 07:42:59;;;;;;;;;;;;;;;25.79;73.81;101950.84;5054851;28;19967;-60
2022/07/13 07:45:24;;;;;;;;;;;;;;;25.98;72.24;101951.81;5051295;28;20387;-59
2022/07/13 07:47:50;;;;;;;;;;;;;;;26.05;72.13;101955.72;5063449;28;19960;-60
2022/07/13 07:50:15;;;;;;;;;;;;;;;26.14;70.44;101954.00;5056956;28;19932;-59
2022/07/13 07:52:41;;;;;;;;;;;;;;;26.22;72.14;101964.13;5061967;28;20359;-59
2022/07/13 07:55:07;;;;;;;;;;;;;;;26.39;69.90;101966.09;5059952;28;19917;-60
2022/07/13 07:57:42;;;;;;;;;;;;;;;26.28;70.27;101972.56;5067151;28;20008;-59
2022/07/13 08:00:08;;;;;;;;;;;;;;;26.35;69.40;101967.38;5055111;28;19913;-59
2022/07/13 08:02:33;;;;;;;;;;;;;;;26.30;69.37;101975.13;5048278;28;19917;-59
2022/07/13 08:04:59;;;;;;;;;;;;;;;26.35;70.97;101977.41;5063161;28;19913;-59
2022/07/13 08:07:24;;;;;;;;;;;;;;;26.29;70.34;101967.97;5054647;28;19920;-58
2022/07/13 08:09:49;;;;;;;;;;;;;;;25.91;70.81;101967.81;5072567;28;19920;-58
2022/07/13 08:12:14;;;;;;;;;;;;;;;25.71;69.28;101969.66;5058692;28;19921;-59
2022/07/13 08:14:42;;;;;;;;;;;;;;;25.71;72.04;101966.94;5061891;28;19974;-58
2022/07/13 08:17:07;;;;;;;;;;;;;;;25.63;71.89;101970.38;5060892;28;20002;-58
2022/07/13 08:19:32;;;;;;;;;;;;;;;25.63;74.46;101964.94;5069533;28;19974;-59
2022/07/13 08:21:57;;;;;;;;;;;;;;;25.77;71.13;101973.66;5045611;28;19924;-58
2022/07/13 08:24:23;;;;;;;;;;;;;;;25.69;72.47;101979.78;5048826;28;19942;-58
2022/07/13 08:26:50;;;;;;;;;;;;;;;25.64;72.62;101974.78;5038699;28;19921;-58
2022/07/13 08:29:16;;;;;;;;;;;;;;;25.68;70.94;101967.25;5054127;28;19917;-59
2022/07/13 08:31:41;;;;;;;;;;;;;;;25.67;71.03;101974.50;5047774;28;19916;-59
2022/07/13 08:39:34;;;;;;;;;;;;;;;25.38;70.39;101973.59;5064097;28;20260;-59
2022/07/13 08:42:00;;;;;;;;;;;;;;;25.32;71.40;101978.53;5068597;28;19974;-59
2022/07/13 08:44:25;;;;;;;;;;;;;;;25.36;70.12;101979.16;5066874;28;19932;-59
2022/07/13 08:46:50;;;;;;;;;;;;;;;26.15;69.18;101981.00;5063483;28;20338;-59
2022/07/13 08:49:16;;;;;;;;;;;;;;;27.29;64.55;101985.53;5054023;28;19913;-59
2022/07/13 08:51:43;;;;;;;;;;;;;;;28.16;58.31;101987.00;5054316;28;20340;-58
2022/07/13 08:54:08;;;;;;;;;;;;;;;28.53;55.75;101988.63;5063993;28;19969;-58
2022/07/13 08:56:34;;;;;;;;;;;;;;;29.37;50.93;101981.63;5061317;28;19921;-58
2022/07/13 08:58:59;;;;;;;;;;;;;;;29.73;47.86;101972.31;5028446;28;20383;-58
2022/07/13 09:01:24;;;;;;;;;;;;;;;30.05;47.06;101976.13;5066320;28;19971;-58
2022/07/13 09:03:51;;;;;;;;;;;;;;;30.47;44.00;101982.44;5050870;28;19920;-59
2022/07/13 09:06:47;;;;;;;;;;;;;;;30.63;46.29;101979.72;5068740;28;19921;-59
2022/07/13 09:09:26;;;;;;;;;;;;;;;30.98;43.96;101979.44;5045678;28;19935;-58
2022/07/13 09:11:51;;;;;;;;;;;;;;;31.26;44.63;101979.00;5061843;28;19928;-59
2022/07/13 09:14:23;;;;;;;;;;;;;;;31.98;42.98;101978.72;5065970;28;20000;-59
2022/07/13 09:16:51;;;;;;;;;;;;;;;31.76;41.93;101983.16;5041638;28;19916;-59
2022/07/13 09:19:16;;;;;;;;;;;;;;;31.29;42.33;101978.63;5068683;28;19920;-59
2022/07/13 09:21:42;;;;;;;;;;;;;;;31.36;41.79;101979.63;5038502;28;20015;-59
2022/07/13 09:24:07;;;;;;;;;;;;;;;31.32;41.20;101979.13;5072719;28;19919;-59
2022/07/13 09:26:41;;;;;;;;;;;;;;;31.14;43.13;101997.69;5065704;28;19920;-59
2022/07/13 09:29:07;;;;;;;;;;;;;;;31.82;41.39;101993.41;5068324;28;20284;-59
2022/07/13 09:31:48;;;;;;;;;;;;;;;31.38;40.89;101989.38;5056791;28;19924;-59
2022/07/13 09:34:14;;;;;;;;;;;;;;;31.56;40.98;101984.66;5053146;28;19912;-59
2022/07/13 09:36:40;;;;;;;;;;;;;;;31.49;41.30;101990.00;5048080;28;19917;-59
2022/07/13 09:39:09;;;;;;;;;;;;;;;31.61;40.98;101984.97;5040915;28;19920;-59
2022/07/13 09:41:34;;;;;;;;;;;;;;;31.81;40.99;101990.84;5071990;28;19959;-59
2022/07/13 09:46:49;;;;;;;;;;;;;;;31.19;44.74;101992.53;5071963;28;19954;-59
2022/07/13 09:49:18;;;;;;;;;;;;;;;30.94;43.04;101999.97;5065577;28;19916;-59
2022/07/13 09:51:46;;;;;;;;;;;;;;;30.32;45.74;102004.13;5036773;28;20410;-59
2022/07/13 09:54:12;;;;;;;;;;;;;;;30.24;45.08;101999.53;5062578;28;19917;-59
2022/07/13 09:56:40;;;;;;;;;;;;;;;30.23;44.88;102000.53;5055536;28;19917;-59
2022/07/13 09:59:07;;;;;;;;;;;;;;;30.20;46.21;102007.22;5035074;28;20175;-59
2022/07/13 10:01:33;;;;;;;;;;;;;;;29.97;44.41;101996.09;5034428;28;19913;-59
2022/07/13 10:03:58;;;;;;;;;;;;;;;30.17;45.37;102006.72;5052628;28;19923;-59
2022/07/13 10:06:24;;;;;;;;;;;;;;;30.08;44.83;102005.84;5060984;28;19917;-59
2022/07/13 10:08:53;;;;;;;;;;;;;;;29.81;46.98;102002.38;5057395;28;19925;-59
2022/07/13 10:11:18;;;;;;;;;;;;;;;29.68;45.77;102004.72;5052701;28;19917;-59
2022/07/13 10:13:44;;;;;;;;;;;;;;;29.43;46.65;102010.97;5052308;28;19924;-59
2022/07/13 10:16:09;;;;;;;;;;;;;;;29.56;47.06;102010.50;5044628;28;19912;-59
2022/07/13 10:18:37;;;;;;;;;;;;;;;29.40;46.40;102011.31;5062383;28;19999;-59
2022/07/13 10:21:08;;;;;;;;;;;;;;;29.01;48.49;102014.50;5065223;28;19965;-60
2022/07/13 10:23:35;;;;;;;;;;;;;;;28.58;49.03;102019.84;5056414;28;19923;-59
2022/07/13 10:26:01;;;;;;;;;;;;;;;28.46;48.51;102021.13;5064673;28;20435;-59
2022/07/13 10:28:26;;;;;;;;;;;;;;;27.86;51.40;102035.34;5051332;28;20016;-59
2022/07/13 10:30:51;;;;;;;;;;;;;;;27.57;53.68;102036.38;5051901;28;19917;-59
2022/07/13 10:33:21;;;;;;;;;;;;;;;28.02;52.07;102043.69;5034497;28;19921;-58
2022/07/13 10:35:49;;;;;;;;;;;;;;;28.76;50.97;102047.09;5034309;28;19952;-58
2022/07/13 10:38:15;;;;;;;;;;;;;;;29.05;51.19;102042.31;5061891;28;19919;-58
2022/07/13 10:40:40;;;;;;;;;;;;;;;29.07;47.57;102052.03;5053897;28;19921;-59
2022/07/13 10:43:06;;;;;;;;;;;;;;;28.97;46.99;102056.75;5063912;28;19928;-58
2022/07/13 10:45:40;;;;;;;;;;;;;;;29.04;45.98;102060.56;5052047;28;19920;-59
2022/07/13 10:48:31;;;;;;;;;;;;;;;28.72;46.57;102053.88;5065429;28;19920;-58
2022/07/13 10:50:58;;;;;;;;;;;;;;;28.82;47.27;102051.03;5065790;28;21448;-59
2022/07/13 10:53:39;;;;;;;;;;;;;;;29.27;46.37;102043.63;5043590;28;20015;-58
2022/07/13 10:56:20;;;;;;;;;;;;;;;29.38;45.17;102056.16;5047986;28;19916;-58
2022/07/13 10:58:46;;;;;;;;;;;;;;;30.15;45.41;102050.56;5067463;28;19920;-58
2022/07/13 11:01:30;;;;;;;;;;;;;;;30.86;41.60;102036.41;5066190;28;20300;-58
2022/07/13 11:03:55;;;;;;;;;;;;;;;31.15;41.46;102045.91;5052004;28;19919;-59
2022/07/13 11:06:25;;;;;;;;;;;;;;;31.30;39.28;102038.66;5068186;28;19912;-58
2022/07/13 11:09:08;;;;;;;;;;;;;;;30.96;40.98;102038.91;5051338;28;19979;-58
2022/07/13 11:11:33;;;;;;;;;;;;;;;30.40;42.30;102045.13;5033938;28;20380;-58
2022/07/13 11:13:59;;;;;;;;;;;;;;;30.00;47.40;102053.13;5051538;28;19913;-59
2022/07/13 11:16:43;;;;;;;;;;;;;;;30.00;44.74;102055.88;5042127;28;20503;-58
2022/07/13 11:19:08;;;;;;;;;;;;;;;30.00;45.51;102074.13;5048735;28;20395;-59
2022/07/13 11:21:53;;;;;;;;;;;;;;;30.50;46.74;102069.56;5056396;28;19956;-59
2022/07/13 11:27:10;;;;;;;;;;;;;;;30.49;44.86;102084.28;5063531;28;20437;-59
2022/07/13 11:30:05;;;;;;;;;;;;;;;30.64;45.21;102073.50;5068228;28;20019;-59
2022/07/13 11:32:30;;;;;;;;;;;;;;;30.85;45.14;102082.00;5052470;28;19913;-60
2022/07/13 11:34:56;;;;;;;;;;;;;;;30.67;45.43;102081.38;5071420;28;19920;-59
2022/07/13 11:37:22;;;;;;;;;;;;;;;30.39;45.31;102073.47;5059499;28;20269;-59
2022/07/13 11:39:47;;;;;;;;;;;;;;;30.03;45.20;102077.38;5069667;28;20111;-59
2022/07/13 11:42:12;;;;;;;;;;;;;;;29.72;45.16;102083.41;5068432;28;19917;-59
2022/07/13 11:44:37;;;;;;;;;;;;;;;29.24;47.22;102082.97;5073041;28;19920;-59
2022/07/13 11:47:12;;;;;;;;;;;;;;;29.37;45.71;102096.22;5059218;28;20404;-59
2022/07/13 11:49:47;;;;;;;;;;;;;;;29.06;47.63;102084.94;5060254;28;19970;-59
2022/07/13 11:52:19;;;;;;;;;;;;;;;29.24;46.22;102093.91;5059868;28;19916;-59
2022/07/13 11:54:53;;;;;;;;;;;;;;;30.07;44.85;102086.94;5061895;28;19917;-59
2022/07/13 11:57:19;;;;;;;;;;;;;;;30.20;42.79;102100.09;5050479;28;19917;-59
2022/07/13 11:59:45;;;;;;;;;;;;;;;30.59;43.89;102090.44;5043607;28;19966;-58
2022/07/13 12:02:11;;;;;;;;;;;;;;;30.81;43.40;102096.22;5047077;28;20261;-59
2022/07/13 12:04:44;;;;;;;;;;;;;;;30.73;42.76;102092.47;5058660;28;19983;-59
2022/07/13 12:07:09;;;;;;;;;;;;;;;30.47;44.21;102095.38;5055224;28;19924;-59
2022/07/13 12:09:35;;;;;;;;;;;;;;;30.50;43.17;102095.03;5058857;28;20015;-58
2022/07/13 12:12:00;;;;;;;;;;;;;;;30.29;43.25;102092.75;5068527;28;19963;-58
2022/07/13 12:14:25;;;;;;;;;;;;;;;30.11;45.79;102089.34;5069633;28;19928;-59
2022/07/13 12:16:51;;;;;;;;;;;;;;;30.71;44.30;102089.03;5072754;28;19920;-58
2022/07/13 12:19:18;;;;;;;;;;;;;;;31.07;43.35;102090.56;5070012;28;19920;-59
2022/07/13 12:21:55;;;;;;;;;;;;;;;31.38;40.18;102090.63;5071153;28;19939;-59
2022/07/13 12:24:21;;;;;;;;;;;;;;;31.11;41.84;102088.31;5065006;28;20037;-59
2022/07/13 12:26:53;;;;;;;;;;;;;;;30.98;42.64;102088.84;5069629;28;19946;-59
2022/07/13 12:29:33;;;;;;;;;;;;;;;30.70;43.07;102094.69;5064106;28;20066;-60
2022/07/13 12:31:59;;;;;;;;;;;;;;;30.65;44.04;102099.81;5067885;28;19924;-60
2022/07/13 12:34:24;;;;;;;;;;;;;;;31.67;39.43;102102.84;5061928;28;19947;-59
2022/07/13 12:36:50;;;;;;;;;;;;;;;31.89;39.02;102105.81;5060931;28;19924;-59
2022/07/13 12:39:18;;;;;;;;;;;;;;;32.23;38.11;102092.78;5062691;28;19916;-59
2022/07/13 12:41:53;;;;;;;;;;;;;;;32.57;37.93;102099.72;5060391;28;19923;-60
2022/07/13 12:44:25;;;;;;;;;;;;;;;32.18;37.98;102093.34;5054196;28;19929;-60